PORTS® Data Listing: 8531680 Sandy Hook, NJ

CO-OPS RAW PORTS DATA

************************      PRELIMINARY DATA      ************************** 

     THIS RAW DATA HAS NOT BEEN SUBJECT TO THE NATIONAL OCEAN SERVICE'S        
     QUALITY CONTROL OR QUALITY ASSURANCE PROCEDURES AND DOES NOT MEET         
     THE CRITERIA AND STANDARDS OF OFFICIAL NATIONAL OCEAN SERVICE             
     DATA.  IT IS RELEASED FOR LIMITED PUBLIC USE AS PRELIMINARY DATA TO       
     BE USED ONLY WITH APPROPRIATE CAUTION.                                    

************************      PRELIMINARY DATA      ************************** 


       CD   -   Calendar date
       T    -   Time
       TZ   -   Timezone
       PW   -   Predicted water level (feet above MLLW)
       OW   -   Observed water level (feet above MLLW)
       WS   -   Wind speed (knots)
       WD   -   Wind direction (degrees true)
       WG   -   Wind gust (knots)
       AT   -   Air temperature (degrees farenheit)
       WT   -   Water temperature (degrees farenheit)
       AP   -   Air pressure (millibars)
       SA   -   Salinty (PSU - Practical Salinity Units)
       SG   -   Specific gravity
       RH   -   Relative humidity
       AG   -   Air gap (feet)
       VI   -   Visibility (nautical miles)

       ** NOTE **
       A variable that has its data fields filled with "9"s, indicates that
       data was not collected for that sample period.
       **********


STATION NAME: Sandy Hook (8531680)
****************************************************************************************************
    CD       T    TZ    PW     OW    WS   WD   WG    AT    WT    AP    SA    SG     RH    AG   VI
****************************************************************************************************
2019/11/21 13:48 EST    4.67   5.51    5  268    8  50.5  45.1 1020.6 -9.9 -9.999 -99.9 -99.99 -9.99
2019/11/21 13:54 EST    4.72   5.61    5  270    7  50.7  45.0 1020.6 -9.9 -9.999 -99.9 -99.99 -9.99
2019/11/21 14:00 EST    4.77   5.64    5  273    6  50.7  45.0 1020.6 -9.9 -9.999 -99.9 -99.99 -9.99
2019/11/21 14:06 EST    4.82   5.68    5  283    6  51.1  45.0 1020.6 -9.9 -9.999 -99.9 -99.99 -9.99
2019/11/21 14:12 EST    4.86   5.74    6  283    7  51.6  45.0 1020.4 -9.9 -9.999 -99.9 -99.99 -9.99
2019/11/21 14:18 EST    4.89   5.78    6  282    7  51.3  45.0 1020.4 -9.9 -9.999 -99.9 -99.99 -9.99
2019/11/21 14:24 EST    4.92   5.78    8  286    8  51.6  45.0 1020.3 -9.9 -9.999 -99.9 -99.99 -9.99
2019/11/21 14:30 EST    4.94   5.84    7  286    8  51.4  45.0 1020.2 -9.9 -9.999 -99.9 -99.99 -9.99
2019/11/21 14:36 EST    4.96   5.85    6  286    7  51.6  45.1 1020.2 -9.9 -9.999 -99.9 -99.99 -9.99
2019/11/21 14:42 EST    4.97   5.85    7  283    7  51.4  45.1 1020.1 -9.9 -9.999 -99.9 -99.99 -9.99
2019/11/21 14:48 EST    4.97   5.87    6  276    7  50.7  45.1 1020.2 -9.9 -9.999 -99.9 -99.99 -9.99
2019/11/21 14:54 EST    4.97   5.88    6  284    7  50.5  45.1 1020.1 -9.9 -9.999 -99.9 -99.99 -9.99
2019/11/21 15:00 EST    4.96   5.90    6  285    7  50.2  45.1 1020.1 -9.9 -9.999 -99.9 -99.99 -9.99
2019/11/21 15:06 EST    4.94   5.87    5  288    7  50.4  45.3 1020.2 -9.9 -9.999 -99.9 -99.99 -9.99
2019/11/21 15:12 EST    4.92   5.87    5  285    6  50.4  45.3 1020.1 -9.9 -9.999 -99.9 -99.99 -9.99
2019/11/21 15:18 EST    4.89   5.85    5  276    5  50.2  45.3 1020.2 -9.9 -9.999 -99.9 -99.99 -9.99
2019/11/21 15:24 EST    4.86   5.81    3  262    5  50.2  45.3 1020.3 -9.9 -9.999 -99.9 -99.99 -9.99
2019/11/21 15:30 EST    4.82   5.78    4  261    4  50.0  45.3 1020.3 -9.9 -9.999 -99.9 -99.99 -9.99
2019/11/21 15:36 EST    4.77   5.71    3  247    4  50.0  45.3 1020.2 -9.9 -9.999 -99.9 -99.99 -9.99
2019/11/21 15:42 EST    4.71   5.66    3  247    3  50.0  45.5 1020.0 -9.9 -9.999 -99.9 -99.99 -9.99
2019/11/21 15:48 EST    4.65   5.64    3  263    3  50.0  45.7 1019.9 -9.9 -9.999 -99.9 -99.99 -9.99
2019/11/21 15:54 EST    4.59   5.58    4  256    4  50.4  45.5 1019.9 -9.9 -9.999 -99.9 -99.99 -9.99
2019/11/21 16:00 EST    4.52   5.51    4  240    4  50.5  45.5 1019.8 -9.9 -9.999 -99.9 -99.99 -9.99
2019/11/21 16:06 EST    4.44   5.48    3  216    4  50.4  45.5 1019.8 -9.9 -9.999 -99.9 -99.99 -9.99
2019/11/21 16:12 EST    4.36   5.44    5  227    6  49.8  45.7 1019.8 -9.9 -9.999 -99.9 -99.99 -9.99
2019/11/21 16:18 EST    4.28   5.37    5  225    6  49.8  45.7 1019.7 -9.9 -9.999 -99.9 -99.99 -9.99
2019/11/21 16:24 EST    4.19   5.31    7  238    8  50.0  45.7 1019.7 -9.9 -9.999 -99.9 -99.99 -9.99
2019/11/21 16:30 EST    4.09   5.27    7  219    8  50.0  45.7 1019.8 -9.9 -9.999 -99.9 -99.99 -9.99
2019/11/21 16:36 EST    4.00   5.19    5  194    7  50.0  45.5 1019.8 -9.9 -9.999 -99.9 -99.99 -9.99
2019/11/21 16:42 EST    3.90   5.10    7  208    7  49.5  45.5 1019.5 -9.9 -9.999 -99.9 -99.99 -9.99
2019/11/21 16:48 EST    3.80   5.05    8  219    9  49.8  45.5 1019.8 -9.9 -9.999 -99.9 -99.99 -9.99
2019/11/21 16:54 EST    3.69   4.94    8  214    9  49.8  45.5 1020.0 -9.9 -9.999 -99.9 -99.99 -9.99
2019/11/21 17:00 EST    3.59   4.85    7  204    7  50.5  45.5 1019.8 -9.9 -9.999 -99.9 -99.99 -9.99
2019/11/21 17:06 EST    3.48   4.77    7  197    7  49.6  45.5 1019.7 -9.9 -9.999 -99.9 -99.99 -9.99
2019/11/21 17:12 EST    3.37   4.68    6  208    7  49.3  45.5 1019.7 -9.9 -9.999 -99.9 -99.99 -9.99
2019/11/21 17:18 EST    3.26   4.56    6  210    7  49.8  45.5 1019.7 -9.9 -9.999 -99.9 -99.99 -9.99
2019/11/21 17:24 EST    3.15   4.47    6  198    7  49.1  45.5 1019.6 -9.9 -9.999 -99.9 -99.99 -9.99
2019/11/21 17:30 EST    3.04   4.38    5  195    6  49.3  45.5 1019.6 -9.9 -9.999 -99.9 -99.99 -9.99
2019/11/21 17:36 EST    2.93   4.27    6  193    6  47.7  45.5 1019.6 -9.9 -9.999 -99.9 -99.99 -9.99
2019/11/21 17:42 EST    2.83   4.15    5  201    6  47.7  45.5 1019.6 -9.9 -9.999 -99.9 -99.99 -9.99
2019/11/21 17:48 EST    2.72   4.05    6  205    6  48.0  45.5 1019.7 -9.9 -9.999 -99.9 -99.99 -9.99
2019/11/21 17:54 EST    2.61   3.96    6  193    6  47.7  45.5 1019.7 -9.9 -9.999 -99.9 -99.99 -9.99
2019/11/21 18:00 EST    2.50   3.85    6  194    6  47.5  45.5 1019.5 -9.9 -9.999 -99.9 -99.99 -9.99
2019/11/21 18:06 EST    2.40   3.73    6  190    6  47.7  45.5 1019.6 -9.9 -9.999 -99.9 -99.99 -9.99
2019/11/21 18:12 EST    2.30   3.65    6  200    6  47.7  45.5 1019.6 -9.9 -9.999 -99.9 -99.99 -9.99
2019/11/21 18:18 EST    2.19   3.53    6  196    7  48.4  45.5 1019.6 -9.9 -9.999 -99.9 -99.99 -9.99
2019/11/21 18:24 EST    2.09   3.42    7  190    7  47.7  45.5 1019.6 -9.9 -9.999 -99.9 -99.99 -9.99
2019/11/21 18:30 EST    1.99   3.32    6  190    7  47.7  45.5 1019.3 -9.9 -9.999 -99.9 -99.99 -9.99
2019/11/21 18:36 EST    1.89   3.21    7  191    8  47.3  45.5 1019.3 -9.9 -9.999 -99.9 -99.99 -9.99
2019/11/21 18:42 EST    1.80   3.11    8  186    8  47.3  45.5 1019.2 -9.9 -9.999 -99.9 -99.99 -9.99
2019/11/21 18:48 EST    1.70   2.99    7  193    8  47.5  45.5 1019.1 -9.9 -9.999 -99.9 -99.99 -9.99
2019/11/21 18:54 EST    1.60   2.88    7  202    8  47.7  45.5 1019.1 -9.9 -9.999 -99.9 -99.99 -9.99
2019/11/21 19:00 EST    1.51   2.79    7  204    8  48.0  45.5 1019.2 -9.9 -9.999 -99.9 -99.99 -9.99
2019/11/21 19:06 EST    1.42   2.65    6  200    7  48.4  45.5 1019.3 -9.9 -9.999 -99.9 -99.99 -9.99
2019/11/21 19:12 EST    1.32   2.54    6  198    7  47.8  45.5 1019.4 -9.9 -9.999 -99.9 -99.99 -9.99
2019/11/21 19:18 EST    1.23   2.42    7  193    7  47.7  45.5 1019.4 -9.9 -9.999 -99.9 -99.99 -9.99
2019/11/21 19:24 EST    1.14   2.32    7  194    7  47.5  45.3 1019.2 -9.9 -9.999 -99.9 -99.99 -9.99
2019/11/21 19:30 EST    1.05   2.21    7  198    7  48.0  45.3 1019.1 -9.9 -9.999 -99.9 -99.99 -9.99
2019/11/21 19:36 EST    0.96   2.11    6  195    7  48.4  45.3 1019.1 -9.9 -9.999 -99.9 -99.99 -9.99
2019/11/21 19:42 EST    0.88   2.00    5  198    7  47.8  45.3 1019.2 -9.9 -9.999 -99.9 -99.99 -9.99
2019/11/21 19:48 EST    0.79   1.91    7  194    8  47.5  45.3 1019.2 -9.9 -9.999 -99.9 -99.99 -9.99
2019/11/21 19:54 EST    0.71   1.82    8  189    8  47.3  45.3 1018.8 -9.9 -9.999 -99.9 -99.99 -9.99
2019/11/21 20:00 EST    0.63   1.73    7  194    8  47.3  45.3 1018.8 -9.9 -9.999 -99.9 -99.99 -9.99
2019/11/21 20:06 EST    0.55   1.68    7  196    8  47.3  45.3 1018.8 -9.9 -9.999 -99.9 -99.99 -9.99
2019/11/21 20:12 EST    0.47   1.60    7  198    8  47.3  45.3 1018.7 -9.9 -9.999 -99.9 -99.99 -9.99
2019/11/21 20:18 EST    0.39   1.53    6  203    7  47.5  45.3 1018.7 -9.9 -9.999 -99.9 -99.99 -9.99
2019/11/21 20:24 EST    0.32   1.46    8  208    8  47.3  45.3 1018.6 -9.9 -9.999 -99.9 -99.99 -9.99
2019/11/21 20:30 EST    0.25   1.41    8  204    9  47.3  45.3 1018.6 -9.9 -9.999 -99.9 -99.99 -9.99
2019/11/21 20:36 EST    0.19   1.33   10  210   11  47.3  45.3 1018.4 -9.9 -9.999 -99.9 -99.99 -9.99
2019/11/21 20:42 EST    0.13   1.27   11  215   12  47.5  45.3 1018.4 -9.9 -9.999 -99.9 -99.99 -9.99
2019/11/21 20:48 EST    0.07   1.22   11  211   13  47.7  45.3 1018.3 -9.9 -9.999 -99.9 -99.99 -9.99
2019/11/21 20:54 EST    0.02   1.15   11  218   13  47.7  45.3 1018.1 -9.9 -9.999 -99.9 -99.99 -9.99
2019/11/21 21:00 EST   -0.03   1.11   11  214   13  47.7  45.3 1018.1 -9.9 -9.999 -99.9 -99.99 -9.99
2019/11/21 21:06 EST   -0.07   1.08   11  216   12  47.8  45.3 1017.9 -9.9 -9.999 -99.9 -99.99 -9.99
2019/11/21 21:12 EST   -0.10   1.04   11  220   12  47.7  45.3 1017.9 -9.9 -9.999 -99.9 -99.99 -9.99
2019/11/21 21:18 EST   -0.13   1.03   11  221   12  47.7  45.3 1017.9 -9.9 -9.999 -99.9 -99.99 -9.99
2019/11/21 21:24 EST   -0.15   1.04    8  210   11  47.8  45.3 1017.8 -9.9 -9.999 -99.9 -99.99 -9.99
2019/11/21 21:30 EST   -0.16   1.06    9  206   11  47.7  45.3 1017.5 -9.9 -9.999 -99.9 -99.99 -9.99
2019/11/21 21:36 EST   -0.17   1.06    9  209   11  47.8  45.3 1017.4 -9.9 -9.999 -99.9 -99.99 -9.99
2019/11/21 21:42 EST   -0.16   1.10    9  224   10  48.0  45.3 1017.3 -9.9 -9.999 -99.9 -99.99 -9.99
2019/11/21 21:48 EST   -0.15   1.15    9  225   10  47.8  45.3 1017.5 -9.9 -9.999 -99.9 -99.99 -9.99
2019/11/21 21:54 EST   -0.14   1.17   11  230   12  47.7  45.3 1017.5 -9.9 -9.999 -99.9 -99.99 -9.99
2019/11/21 22:00 EST   -0.11   1.21   10  232   14  47.8  45.3 1017.5 -9.9 -9.999 -99.9 -99.99 -9.99
2019/11/21 22:06 EST   -0.08   1.27   11  226   13  47.8  45.3 1017.5 -9.9 -9.999 -99.9 -99.99 -9.99
2019/11/21 22:12 EST   -0.03   1.33   11  213   13  47.8  45.3 1017.3 -9.9 -9.999 -99.9 -99.99 -9.99
2019/11/21 22:18 EST    0.02   1.33   11  213   14  48.0  45.3 1017.0 -9.9 -9.999 -99.9 -99.99 -9.99
2019/11/21 22:24 EST    0.07   1.41   11  208   12  47.8  45.3 1016.9 -9.9 -9.999 -99.9 -99.99 -9.99
2019/11/21 22:30 EST    0.14   1.50   11  206   13  48.0  45.3 1016.7 -9.9 -9.999 -99.9 -99.99 -9.99
2019/11/21 22:36 EST    0.21   1.57   10  201   13  47.8  45.3 1016.5 -9.9 -9.999 -99.9 -99.99 -9.99
2019/11/21 22:42 EST    0.29   1.65   11  188   13  47.8  45.3 1016.2 -9.9 -9.999 -99.9 -99.99 -9.99
2019/11/21 22:48 EST    0.38   1.76   11  194   14  47.8  45.3 1016.0 -9.9 -9.999 -99.9 -99.99 -9.99
2019/11/21 22:54 EST    0.47   1.90   11  212   13  48.0  45.3 1016.1 -9.9 -9.999 -99.9 -99.99 -9.99
2019/11/21 23:00 EST    0.57   2.03   10  217   12  48.0  45.3 1016.3 -9.9 -9.999 -99.9 -99.99 -9.99
2019/11/21 23:06 EST    0.68   2.16   10  223   12  47.8  45.3 1016.2 -9.9 -9.999 -99.9 -99.99 -9.99
2019/11/21 23:12 EST    0.79   2.27    9  211   12  47.7  45.1 1016.2 -9.9 -9.999 -99.9 -99.99 -9.99
2019/11/21 23:18 EST    0.90   2.41    8  207   11  47.8  45.1 1015.8 -9.9 -9.999 -99.9 -99.99 -9.99
2019/11/21 23:24 EST    1.02   2.54    8  207    9  47.8  45.1 1015.7 -9.9 -9.999 -99.9 -99.99 -9.99
2019/11/21 23:30 EST    1.14   2.68    8  210   10  47.7  45.1 1015.8 -9.9 -9.999 -99.9 -99.99 -9.99
2019/11/21 23:36 EST    1.27   2.81    9  217   10  47.7  45.1 1015.9 -9.9 -9.999 -99.9 -99.99 -9.99
2019/11/21 23:42 EST    1.39   2.94   10  226   12  47.8  45.0 1016.0 -9.9 -9.999 -99.9 -99.99 -9.99
2019/11/21 23:48 EST    1.52   3.07    9  233   12  48.2  45.1 1016.3 -9.9 -9.999 -99.9 -99.99 -9.99
2019/11/21 23:54 EST    1.66   3.21    9  233   11  48.2  45.0 1016.4 -9.9 -9.999 -99.9 -99.99 -9.99
2019/11/22 00:00 EST    1.79   3.34    8  222   10  48.0  45.0 1016.4 -9.9 -9.999 -99.9 -99.99 -9.99
2019/11/22 00:06 EST    1.92   3.49   10  227   12  47.8  45.0 1016.1 -9.9 -9.999 -99.9 -99.99 -9.99
2019/11/22 00:12 EST    2.06   3.63   11  223   14  48.2  45.0 1016.0 -9.9 -9.999 -99.9 -99.99 -9.99
2019/11/22 00:18 EST    2.19   3.77   12  218   14  48.2  45.0 1016.0 -9.9 -9.999 -99.9 -99.99 -9.99
2019/11/22 00:24 EST    2.33   3.89   11  213   16  48.2  45.0 1015.9 -9.9 -9.999 -99.9 -99.99 -9.99
2019/11/22 00:30 EST    2.46   4.01   11  219   12  48.2  45.0 1015.7 -9.9 -9.999 -99.9 -99.99 -9.99
2019/11/22 00:36 EST    2.59   4.14    9  209   14  48.2  45.0 1015.7 -9.9 -9.999 -99.9 -99.99 -9.99
2019/11/22 00:42 EST    2.73   4.24   10  205   12  48.0  45.0 1015.5 -9.9 -9.999 -99.9 -99.99 -9.99
2019/11/22 00:48 EST    2.86   4.36   10  208   11  48.0  44.8 1015.1 -9.9 -9.999 -99.9 -99.99 -9.99
2019/11/22 00:54 EST    2.98   4.44   11  215   12  47.8  44.8 1015.1 -9.9 -9.999 -99.9 -99.99 -9.99
2019/11/22 01:00 EST    3.11   4.58   10  210   12  48.0  44.8 1015.1 -9.9 -9.999 -99.9 -99.99 -9.99
2019/11/22 01:06 EST    3.23   4.65   10  215   12  48.0  44.8 1015.1 -9.9 -9.999 -99.9 -99.99 -9.99
2019/11/22 01:12 EST    3.36   4.74    9  212   12  47.8  44.8 1014.9 -9.9 -9.999 -99.9 -99.99 -9.99
2019/11/22 01:18 EST    3.48   4.87    7  213    8  47.8  44.8 1014.9 -9.9 -9.999 -99.9 -99.99 -9.99
2019/11/22 01:24 EST    3.59   4.96   10  221   11  47.7  44.8 1015.0 -9.9 -9.999 -99.9 -99.99 -9.99
2019/11/22 01:30 EST    3.70   5.07    9  218   14  47.8  44.8 1015.1 -9.9 -9.999 -99.9 -99.99 -9.99
2019/11/22 01:36 EST    3.81   5.17    9  221   11  47.8  44.6 1014.9 -9.9 -9.999 -99.9 -99.99 -9.99
2019/11/22 01:42 EST    3.92   5.28   10  223   12  47.7  44.6 1014.9 -9.9 -9.999 -99.9 -99.99 -9.99
2019/11/22 01:48 EST    4.02   5.34   10  222   12  47.7  44.6 1015.0 -9.9 -9.999 -99.9 -99.99 -9.99
2019/11/22 01:54 EST    4.12   5.44   11  216   14  47.7  44.6 1014.9 -9.9 -9.999 -99.9 -99.99 -9.99
2019/11/22 02:00 EST    4.22   5.52   11  214   12  47.7  44.6 1014.7 -9.9 -9.999 -99.9 -99.99 -9.99
2019/11/22 02:06 EST    4.31   5.60   11  210   13  47.7  44.6 1014.7 -9.9 -9.999 -99.9 -99.99 -9.99
2019/11/22 02:12 EST    4.40   5.63    9  207   12  47.7  44.6 1014.4 -9.9 -9.999 -99.9 -99.99 -9.99
2019/11/22 02:18 EST    4.48   5.72   11  206   14  47.5  44.6 1014.1 -9.9 -9.999 -99.9 -99.99 -9.99
2019/11/22 02:24 EST    4.56   5.80   11  203   13  47.5  44.6 1014.1 -9.9 -9.999 -99.9 -99.99 -9.99
2019/11/22 02:30 EST    4.63   5.84   10  207   15  47.3  44.6 1014.0 -9.9 -9.999 -99.9 -99.99 -9.99
2019/11/22 02:36 EST    4.70   5.85   10  200   13  47.1  44.6 1013.9 -9.9 -9.999 -99.9 -99.99 -9.99
2019/11/22 02:42 EST    4.76   5.93   10  203   12  47.1  44.6 1013.5 -9.9 -9.999 -99.9 -99.99 -9.99
2019/11/22 02:48 EST    4.81   6.00   10  207   12  47.1  44.6 1013.6 -9.9 -9.999 -99.9 -99.99 -9.99
2019/11/22 02:54 EST    4.86   6.02   11  208   13  47.1  44.6 1013.5 -9.9 -9.999 -99.9 -99.99 -9.99
2019/11/22 03:00 EST    4.91   6.09   10  205   13  46.9  44.6 1013.4 -9.9 -9.999 -99.9 -99.99 -9.99
2019/11/22 03:06 EST    4.95   6.12   10  201   12  46.9  44.6 1013.3 -9.9 -9.999 -99.9 -99.99 -9.99
2019/11/22 03:12 EST    4.98   6.16    9  206   11  46.9  44.6 1013.2 -9.9 -9.999 -99.9 -99.99 -9.99
2019/11/22 03:18 EST    5.00   6.22    8  207   12  46.6  44.6 1013.2 -9.9 -9.999 -99.9 -99.99 -9.99
2019/11/22 03:24 EST    5.02   6.26    9  208   10  46.8  44.6 1012.9 -9.9 -9.999 -99.9 -99.99 -9.99
2019/11/22 03:30 EST    5.03   6.23   10  215   11  46.8  44.6 1012.9 -9.9 -9.999 -99.9 -99.99 -9.99
2019/11/22 03:36 EST    5.03   6.22    9  207   11  46.8  44.8 1012.8 -9.9 -9.999 -99.9 -99.99 -9.99
2019/11/22 03:42 EST    5.03   6.24    9  211   11  46.8  44.8 1012.8 -9.9 -9.999 -99.9 -99.99 -9.99
2019/11/22 03:48 EST    5.02   6.19    8  206   10  46.8  44.8 1012.8 -9.9 -9.999 -99.9 -99.99 -9.99
2019/11/22 03:54 EST    5.00   6.14    9  202   10  46.8  44.8 1012.5 -9.9 -9.999 -99.9 -99.99 -9.99
2019/11/22 04:00 EST    4.98   6.11    8  211   10  46.8  44.8 1012.4 -9.9 -9.999 -99.9 -99.99 -9.99
2019/11/22 04:06 EST    4.95   6.07    9  215   10  46.8  44.8 1012.4 -9.9 -9.999 -99.9 -99.99 -9.99
2019/11/22 04:12 EST    4.91   6.01    9  219   10  46.9  44.8 1012.5 -9.9 -9.999 -99.9 -99.99 -9.99
2019/11/22 04:18 EST    4.86   5.95    8  221    9  47.1  44.8 1012.3 -9.9 -9.999 -99.9 -99.99 -9.99
2019/11/22 04:24 EST    4.81   5.89    7  228    9  47.1  44.8 1012.3 -9.9 -9.999 -99.9 -99.99 -9.99
2019/11/22 04:30 EST    4.75   5.85    7  229    8  47.1  44.8 1012.3 -9.9 -9.999 -99.9 -99.99 -9.99
2019/11/22 04:36 EST    4.69   5.77    8  223    9  47.1  44.8 1012.2 -9.9 -9.999 -99.9 -99.99 -9.99
2019/11/22 04:42 EST    4.62   5.71    8  221    9  47.1  44.8 1012.2 -9.9 -9.999 -99.9 -99.99 -9.99
2019/11/22 04:48 EST    4.55   5.62    8  228    9  47.1  44.8 1012.0 -9.9 -9.999 -99.9 -99.99 -9.99
2019/11/22 04:54 EST    4.47   5.53    7  224    9  47.1  44.8 1012.0 -9.9 -9.999 -99.9 -99.99 -9.99
2019/11/22 05:00 EST    4.38   5.45    7  235    8  47.1  45.0 1012.0 -9.9 -9.999 -99.9 -99.99 -9.99
2019/11/22 05:06 EST    4.30   5.39    7  233    9  46.9  45.0 1012.3 -9.9 -9.999 -99.9 -99.99 -9.99
2019/11/22 05:12 EST    4.20   5.28    7  235    9  46.9  45.0 1012.3 -9.9 -9.999 -99.9 -99.99 -9.99
2019/11/22 05:18 EST    4.11   5.19    7  231    8  47.1  44.8 1012.2 -9.9 -9.999 -99.9 -99.99 -9.99
2019/11/22 05:24 EST    4.01   5.10    7  229    8  46.9  45.0 1011.9 -9.9 -9.999 -99.9 -99.99 -9.99
2019/11/22 05:30 EST    3.91   5.01    6  222    8  47.1  45.0 1011.8 -9.9 -9.999 -99.9 -99.99 -9.99
2019/11/22 05:36 EST    3.81   4.92    6  221    8  46.9  45.0 1011.6 -9.9 -9.999 -99.9 -99.99 -9.99
2019/11/22 05:42 EST    3.70   4.82    6  224    7  46.9  45.0 1011.4 -9.9 -9.999 -99.9 -99.99 -9.99
2019/11/22 05:48 EST    3.60   4.69    7  222    7  46.9  45.0 1011.3 -9.9 -9.999 -99.9 -99.99 -9.99
2019/11/22 05:54 EST    3.49   4.58    7  219    8  46.9  45.0 1011.4 -9.9 -9.999 -99.9 -99.99 -9.99
2019/11/22 06:00 EST    3.38   4.49    8  211    9  46.8  45.0 1011.2 -9.9 -9.999 -99.9 -99.99 -9.99
2019/11/22 06:06 EST    3.27   4.36    9  216   10  46.8  45.0 1011.0 -9.9 -9.999 -99.9 -99.99 -9.99
2019/11/22 06:12 EST    3.16   4.26    9  220   10  46.8  45.0 1010.9 -9.9 -9.999 -99.9 -99.99 -9.99
2019/11/22 06:18 EST    3.06   4.12   10  222   11  46.8  45.0 1011.1 -9.9 -9.999 -99.9 -99.99 -9.99
2019/11/22 06:24 EST    2.95   4.06    9  223   11  46.6  45.0 1011.1 -9.9 -9.999 -99.9 -99.99 -9.99
2019/11/22 06:30 EST    2.84   3.92    7  220    9  46.6  45.0 1011.2 -9.9 -9.999 -99.9 -99.99 -9.99
2019/11/22 06:36 EST    2.73   3.80    8  225    9  46.6  45.0 1011.1 -9.9 -9.999 -99.9 -99.99 -9.99
2019/11/22 06:42 EST    2.62   3.67    7  225    9  46.6  45.0 1011.1 -9.9 -9.999 -99.9 -99.99 -9.99
2019/11/22 06:48 EST    2.51   3.60    7  223    8  46.4  45.0 1011.0 -9.9 -9.999 -99.9 -99.99 -9.99
2019/11/22 06:54 EST    2.41   3.46    7  223    9  46.4  45.0 1010.9 -9.9 -9.999 -99.9 -99.99 -9.99
2019/11/22 07:00 EST    2.30   3.31    7  217    8  46.4  45.0 1010.9 -9.9 -9.999 -99.9 -99.99 -9.99
2019/11/22 07:06 EST    2.20   3.24    6  210    7  46.4  45.0 1010.8 -9.9 -9.999 -99.9 -99.99 -9.99
2019/11/22 07:12 EST    2.09   3.13    8  208    9  46.4  44.8 1010.4 -9.9 -9.999 -99.9 -99.99 -9.99
2019/11/22 07:18 EST    1.99   2.99    8  221    9  46.4  44.8 1010.5 -9.9 -9.999 -99.9 -99.99 -9.99
2019/11/22 07:24 EST    1.89   2.92    8  233    9  46.4  44.8 1010.5 -9.9 -9.999 -99.9 -99.99 -9.99
2019/11/22 07:30 EST    1.78   2.83   10  234   12  46.8  45.0 1010.7 -9.9 -9.999 -99.9 -99.99 -9.99
2019/11/22 07:36 EST    1.68   2.74    9  235   13  47.1  45.0 1010.8 -9.9 -9.999 -99.9 -99.99 -9.99
2019/11/22 07:42 EST    1.58 -99.99 -999 -999 -999 -99.9 -99.9 -999.9 -9.9 -9.999 -99.9 -99.99 -9.99
2019/11/22 07:48 EST    1.48 -99.99 -999 -999 -999 -99.9 -99.9 -999.9 -9.9 -9.999 -99.9 -99.99 -9.99
2019/11/22 07:54 EST    1.38 -99.99 -999 -999 -999 -99.9 -99.9 -999.9 -9.9 -9.999 -99.9 -99.99 -9.99
2019/11/22 08:00 EST    1.29 -99.99 -999 -999 -999 -99.9 -99.9 -999.9 -9.9 -9.999 -99.9 -99.99 -9.99
2019/11/22 08:06 EST    1.19 -99.99 -999 -999 -999 -99.9 -99.9 -999.9 -9.9 -9.999 -99.9 -99.99 -9.99
2019/11/22 08:12 EST    1.10 -99.99 -999 -999 -999 -99.9 -99.9 -999.9 -9.9 -9.999 -99.9 -99.99 -9.99
2019/11/22 08:18 EST    1.01 -99.99 -999 -999 -999 -99.9 -99.9 -999.9 -9.9 -9.999 -99.9 -99.99 -9.99
2019/11/22 08:24 EST    0.92 -99.99 -999 -999 -999 -99.9 -99.9 -999.9 -9.9 -9.999 -99.9 -99.99 -9.99
2019/11/22 08:30 EST    0.83 -99.99 -999 -999 -999 -99.9 -99.9 -999.9 -9.9 -9.999 -99.9 -99.99 -9.99
2019/11/22 08:36 EST    0.74 -99.99 -999 -999 -999 -99.9 -99.9 -999.9 -9.9 -9.999 -99.9 -99.99 -9.99
2019/11/22 08:42 EST    0.66 -99.99 -999 -999 -999 -99.9 -99.9 -999.9 -9.9 -9.999 -99.9 -99.99 -9.99
2019/11/22 08:48 EST    0.58 -99.99 -999 -999 -999 -99.9 -99.9 -999.9 -9.9 -9.999 -99.9 -99.99 -9.99
2019/11/22 08:54 EST    0.51 -99.99 -999 -999 -999 -99.9 -99.9 -999.9 -9.9 -9.999 -99.9 -99.99 -9.99
2019/11/22 09:00 EST    0.44 -99.99 -999 -999 -999 -99.9 -99.9 -999.9 -9.9 -9.999 -99.9 -99.99 -9.99
2019/11/22 09:06 EST    0.37 -99.99 -999 -999 -999 -99.9 -99.9 -999.9 -9.9 -9.999 -99.9 -99.99 -9.99
2019/11/22 09:12 EST    0.31 -99.99 -999 -999 -999 -99.9 -99.9 -999.9 -9.9 -9.999 -99.9 -99.99 -9.99
2019/11/22 09:18 EST    0.26 -99.99 -999 -999 -999 -99.9 -99.9 -999.9 -9.9 -9.999 -99.9 -99.99 -9.99
2019/11/22 09:24 EST    0.21 -99.99 -999 -999 -999 -99.9 -99.9 -999.9 -9.9 -9.999 -99.9 -99.99 -9.99
2019/11/22 09:30 EST    0.16 -99.99 -999 -999 -999 -99.9 -99.9 -999.9 -9.9 -9.999 -99.9 -99.99 -9.99
2019/11/22 09:36 EST    0.13 -99.99 -999 -999 -999 -99.9 -99.9 -999.9 -9.9 -9.999 -99.9 -99.99 -9.99
2019/11/22 09:42 EST    0.10 -99.99 -999 -999 -999 -99.9 -99.9 -999.9 -9.9 -9.999 -99.9 -99.99 -9.99
2019/11/22 09:48 EST    0.08 -99.99 -999 -999 -999 -99.9 -99.9 -999.9 -9.9 -9.999 -99.9 -99.99 -9.99
2019/11/22 09:54 EST    0.06 -99.99 -999 -999 -999 -99.9 -99.9 -999.9 -9.9 -9.999 -99.9 -99.99 -9.99
2019/11/22 10:00 EST    0.06 -99.99 -999 -999 -999 -99.9 -99.9 -999.9 -9.9 -9.999 -99.9 -99.99 -9.99
2019/11/22 10:06 EST    0.06 -99.99 -999 -999 -999 -99.9 -99.9 -999.9 -9.9 -9.999 -99.9 -99.99 -9.99
2019/11/22 10:12 EST    0.07 -99.99 -999 -999 -999 -99.9 -99.9 -999.9 -9.9 -9.999 -99.9 -99.99 -9.99
2019/11/22 10:18 EST    0.09 -99.99 -999 -999 -999 -99.9 -99.9 -999.9 -9.9 -9.999 -99.9 -99.99 -9.99
2019/11/22 10:24 EST    0.11 -99.99 -999 -999 -999 -99.9 -99.9 -999.9 -9.9 -9.999 -99.9 -99.99 -9.99
2019/11/22 10:30 EST    0.15 -99.99 -999 -999 -999 -99.9 -99.9 -999.9 -9.9 -9.999 -99.9 -99.99 -9.99
2019/11/22 10:36 EST    0.19 -99.99 -999 -999 -999 -99.9 -99.9 -999.9 -9.9 -9.999 -99.9 -99.99 -9.99
2019/11/22 10:42 EST    0.24 -99.99 -999 -999 -999 -99.9 -99.9 -999.9 -9.9 -9.999 -99.9 -99.99 -9.99
2019/11/22 10:48 EST    0.30 -99.99 -999 -999 -999 -99.9 -99.9 -999.9 -9.9 -9.999 -99.9 -99.99 -9.99
2019/11/22 10:54 EST    0.37 -99.99 -999 -999 -999 -99.9 -99.9 -999.9 -9.9 -9.999 -99.9 -99.99 -9.99
2019/11/22 11:00 EST    0.45 -99.99 -999 -999 -999 -99.9 -99.9 -999.9 -9.9 -9.999 -99.9 -99.99 -9.99
2019/11/22 11:06 EST    0.53 -99.99 -999 -999 -999 -99.9 -99.9 -999.9 -9.9 -9.999 -99.9 -99.99 -9.99
2019/11/22 11:12 EST    0.62 -99.99 -999 -999 -999 -99.9 -99.9 -999.9 -9.9 -9.999 -99.9 -99.99 -9.99
2019/11/22 11:18 EST    0.71 -99.99 -999 -999 -999 -99.9 -99.9 -999.9 -9.9 -9.999 -99.9 -99.99 -9.99
2019/11/22 11:24 EST    0.81 -99.99 -999 -999 -999 -99.9 -99.9 -999.9 -9.9 -9.999 -99.9 -99.99 -9.99
2019/11/22 11:30 EST    0.92 -99.99 -999 -999 -999 -99.9 -99.9 -999.9 -9.9 -9.999 -99.9 -99.99 -9.99
2019/11/22 11:36 EST    1.03 -99.99 -999 -999 -999 -99.9 -99.9 -999.9 -9.9 -9.999 -99.9 -99.99 -9.99
2019/11/22 11:42 EST    1.15 -99.99 -999 -999 -999 -99.9 -99.9 -999.9 -9.9 -9.999 -99.9 -99.99 -9.99
2019/11/22 11:48 EST    1.27 -99.99 -999 -999 -999 -99.9 -99.9 -999.9 -9.9 -9.999 -99.9 -99.99 -9.99
2019/11/22 11:54 EST    1.39 -99.99 -999 -999 -999 -99.9 -99.9 -999.9 -9.9 -9.999 -99.9 -99.99 -9.99
2019/11/22 12:00 EST    1.52 -99.99 -999 -999 -999 -99.9 -99.9 -999.9 -9.9 -9.999 -99.9 -99.99 -9.99
2019/11/22 12:06 EST    1.65 -99.99 -999 -999 -999 -99.9 -99.9 -999.9 -9.9 -9.999 -99.9 -99.99 -9.99
2019/11/22 12:12 EST    1.78 -99.99 -999 -999 -999 -99.9 -99.9 -999.9 -9.9 -9.999 -99.9 -99.99 -9.99
2019/11/22 12:18 EST    1.91 -99.99 -999 -999 -999 -99.9 -99.9 -999.9 -9.9 -9.999 -99.9 -99.99 -9.99
2019/11/22 12:24 EST    2.05 -99.99 -999 -999 -999 -99.9 -99.9 -999.9 -9.9 -9.999 -99.9 -99.99 -9.99
2019/11/22 12:30 EST    2.18 -99.99 -999 -999 -999 -99.9 -99.9 -999.9 -9.9 -9.999 -99.9 -99.99 -9.99
2019/11/22 12:36 EST    2.31 -99.99 -999 -999 -999 -99.9 -99.9 -999.9 -9.9 -9.999 -99.9 -99.99 -9.99
2019/11/22 12:42 EST    2.45 -99.99 -999 -999 -999 -99.9 -99.9 -999.9 -9.9 -9.999 -99.9 -99.99 -9.99
2019/11/22 12:48 EST    2.58 -99.99 -999 -999 -999 -99.9 -99.9 -999.9 -9.9 -9.999 -99.9 -99.99 -9.99
2019/11/22 12:54 EST    2.71 -99.99 -999 -999 -999 -99.9 -99.9 -999.9 -9.9 -9.999 -99.9 -99.99 -9.99
2019/11/22 13:00 EST    2.84 -99.99 -999 -999 -999 -99.9 -99.9 -999.9 -9.9 -9.999 -99.9 -99.99 -9.99
2019/11/22 13:06 EST    2.97 -99.99 -999 -999 -999 -99.9 -99.9 -999.9 -9.9 -9.999 -99.9 -99.99 -9.99
2019/11/22 13:12 EST    3.10 -99.99 -999 -999 -999 -99.9 -99.9 -999.9 -9.9 -9.999 -99.9 -99.99 -9.99
2019/11/22 13:18 EST    3.22 -99.99 -999 -999 -999 -99.9 -99.9 -999.9 -9.9 -9.999 -99.9 -99.99 -9.99
2019/11/22 13:24 EST    3.34 -99.99 -999 -999 -999 -99.9 -99.9 -999.9 -9.9 -9.999 -99.9 -99.99 -9.99
2019/11/22 13:30 EST    3.46 -99.99 -999 -999 -999 -99.9 -99.9 -999.9 -9.9 -9.999 -99.9 -99.99 -9.99
2019/11/22 13:36 EST    3.57 -99.99 -999 -999 -999 -99.9 -99.9 -999.9 -9.9 -9.999 -99.9 -99.99 -9.99
2019/11/22 13:42 EST    3.69 -99.99 -999 -999 -999 -99.9 -99.9 -999.9 -9.9 -9.999 -99.9 -99.99 -9.99
2019/11/22 13:48 EST    3.79 -99.99 -999 -999 -999 -99.9 -99.9 -999.9 -9.9 -9.999 -99.9 -99.99 -9.99